Terminal Aerodrome Forecast
Issued by NWS

Home | Current Version | Previous Version | Text Only | Print | Product List | Glossary On
Versions: 1 2 3 4 5 6 7 8 9 10 11 12 13 14 15 16
000
FTUS43 KMPX 250520
TAFAXN
TAF
KAXN 250520Z 2506/2606 05005KT 3SM -DZ BR OVC007
      TEMPO 2506/2508 6SM
     FM250800 03005KT 3SM -DZ BR OVC004
      TEMPO 2514/2518 OVC008
     FM251800 01008KT 4SM -RA BR SCT008 OVC015
     FM252200 23008KT 6SM BR SCT015 BKN025=

USA.gov is the U.S. government's official web portal to all federal, state and local government web resources and services.